Westhampton Beach, New York
Current Conditions -  °F | °C
As of 2:53 AM on Thursday 27 Nov 2014 (Local Time) from KFOK Reporting Station
Light Rain Light Rain  
Wind Chill: 30°   Ceiling: 3900
Heat Index: 37°   Visibility: 9mi
Dew Point: 34°   Wind: 10mph
Humidity: 89%   Direction: 320°NW
Pressure: 29.86"   Gusts: NA
Location:  40.8°N, 72.61°W
Report Text: KFOK 270753Z AUTO 32009KT 9SM -RA FEW016 BKN039 OVC085 03/01 A2986 RMK AO2 SLP113 P0002 T00280011 TSNO
Loading
Personal Weather Stations






























Interactive Weather Map New forecast layout! Learn more

10-Day Weather Forecast

Advertisements
Track Severe Weather on mobile